EDDT/TXL METAR and TAF weather

Enter ICAO airport designator
Station Type Date Time Source
EDDT METAR 2018/10/16 13:50 UTC NOAA

EDDT 161350Z 09004KT 030V140 CAVOK 20/07 Q1018 NOSIG


Station Type Date Time Source
EDDT Decoded METAR 2018/10/16 13:50 UTC NOAA

Berlin-Tegel, Germany (EDDT) 52-34N 013-19E 37M
Oct 16, 2018 - 09:50 AM EDT / 2018.10.16 1350 UTC
Wind: from the E (090 degrees) at 5 MPH (4 KT) (direction variable):0
Visibility: greater than 7 mile(s):0
Temperature: 68 F (20 C)
Dew Point: 44 F (7 C)
Relative Humidity: 42%
Pressure (altimeter): 30.06 in. Hg (1018 hPa)
ob: EDDT 161350Z 09004KT 030V140 CAVOK 20/07 Q1018 NOSIG
cycle: 14

Station Type Date Time Source
EDDT TAF 2018/10/16 12:29 UTC NOAA

TAF EDDT 161100Z 1612/1712 VRB03KT CAVOK PROB30
TEMPO 1704/1707 3000 BCFG


Example: see airport list